createdAt,value
2018-04-14T00:01:05.516Z,8.50
2018-04-14T00:03:31.942Z,8.50
2018-04-14T00:05:58.427Z,8.50
2018-04-14T00:08:24.884Z,8.50
2018-04-14T00:10:51.322Z,8.60
2018-04-14T00:13:17.734Z,8.60
2018-04-14T00:15:44.929Z,8.60
2018-04-14T00:18:11.357Z,8.50
2018-04-14T00:20:37.725Z,8.60
2018-04-14T00:25:30.767Z,8.50
2018-04-14T00:27:57.232Z,8.50
2018-04-14T00:30:23.612Z,8.50
2018-04-14T00:32:50.115Z,8.50
2018-04-14T00:35:17.300Z,8.50
2018-04-14T00:37:43.851Z,8.50
2018-04-14T00:40:10.295Z,8.50
2018-04-14T00:42:37.473Z,8.50
2018-04-14T00:45:04.664Z,8.50
2018-04-14T00:47:31.116Z,8.50
2018-04-14T00:49:57.544Z,8.50
2018-04-14T00:52:24.713Z,8.50
2018-04-14T00:54:51.889Z,8.50
2018-04-14T00:57:19.180Z,8.50
2018-04-14T00:59:46.366Z,8.50
2018-04-14T01:02:12.854Z,8.50
2018-04-14T01:04:39.282Z,8.50
2018-04-14T01:07:05.798Z,8.60
2018-04-14T01:09:32.315Z,8.60
2018-04-14T01:11:58.724Z,8.60
2018-04-14T01:14:26.961Z,8.60
2018-04-14T01:16:53.489Z,8.60
2018-04-14T01:19:20.748Z,8.70
2018-04-14T01:21:47.901Z,8.80
2018-04-14T01:24:14.490Z,8.70
2018-04-14T01:26:41.640Z,8.80
2018-04-14T01:29:08.073Z,8.70
2018-04-14T01:31:36.574Z,8.80
2018-04-14T01:34:03.081Z,8.80
2018-04-14T01:36:30.206Z,8.80
2018-04-14T01:39:02.814Z,8.80
2018-04-14T01:41:29.266Z,8.90
2018-04-14T01:43:57.135Z,8.80
2018-04-14T01:46:25.305Z,8.80
2018-04-14T01:48:51.744Z,8.80
2018-04-14T01:51:18.161Z,8.80
2018-04-14T01:53:44.566Z,8.80
2018-04-14T01:56:11.091Z,8.80
2018-04-14T01:58:38.267Z,8.90
2018-04-14T02:01:05.453Z,8.90
2018-04-14T02:03:32.008Z,8.90
2018-04-14T02:05:59.177Z,8.90
2018-04-14T02:08:26.363Z,8.90
2018-04-14T02:10:52.827Z,8.90
2018-04-14T02:13:20.189Z,8.90
2018-04-14T02:15:47.359Z,8.90
2018-04-14T02:18:14.525Z,8.90
2018-04-14T02:20:41.663Z,8.90
2018-04-14T02:23:08.128Z,8.90
2018-04-14T02:25:34.552Z,8.90
2018-04-14T02:28:01.529Z,8.90
2018-04-14T02:30:27.925Z,9.00
2018-04-14T02:32:55.216Z,9.00
2018-04-14T02:35:21.633Z,9.00
2018-04-14T02:37:51.390Z,9.00
2018-04-14T02:40:18.675Z,9.00
2018-04-14T02:42:45.069Z,9.00
2018-04-14T02:45:11.536Z,8.90
2018-04-14T02:47:40.010Z,9.00
2018-04-14T02:50:06.398Z,8.90
2018-04-14T02:52:32.803Z,8.90
2018-04-14T02:54:59.419Z,8.90
2018-04-14T02:57:25.913Z,8.90
2018-04-14T02:59:52.332Z,8.90
2018-04-14T03:02:18.923Z,8.90
2018-04-14T03:04:46.101Z,9.00
2018-04-14T03:07:12.523Z,8.90
2018-04-14T03:09:38.978Z,9.00
2018-04-14T03:12:05.566Z,9.00
2018-04-14T03:14:32.745Z,9.00
2018-04-14T03:16:59.390Z,9.00
2018-04-14T03:19:26.560Z,9.00
2018-04-14T03:21:53.848Z,9.00
2018-04-14T03:24:21.042Z,9.00
2018-04-14T03:26:47.578Z,9.00
2018-04-14T03:29:15.092Z,9.00
2018-04-14T03:31:41.511Z,9.00
2018-04-14T03:34:07.932Z,9.00
2018-04-14T03:36:34.417Z,9.00
2018-04-14T03:39:01.531Z,9.10
2018-04-14T03:41:27.932Z,9.00
2018-04-14T03:43:54.435Z,9.00
2018-04-14T03:46:20.883Z,9.00
2018-04-14T03:48:47.284Z,9.10
2018-04-14T03:51:15.162Z,9.00
2018-04-14T03:53:41.682Z,9.10
2018-04-14T03:56:08.115Z,9.10
2018-04-14T03:58:35.270Z,9.10
2018-04-14T04:01:02.465Z,9.10
2018-04-14T04:03:30.046Z,9.00
2018-04-14T04:05:57.199Z,9.10
2018-04-14T04:08:23.676Z,9.00
2018-04-14T04:10:50.951Z,9.00
2018-04-14T04:13:17.416Z,9.10
2018-04-14T04:15:43.961Z,9.10
2018-04-14T04:18:10.363Z,9.10
2018-04-14T04:20:49.054Z,9.10
2018-04-14T04:23:27.576Z,9.10
2018-04-14T04:25:54.027Z,9.10
2018-04-14T04:28:21.203Z,9.10
2018-04-14T04:30:52.162Z,9.10
2018-04-14T04:33:18.617Z,9.10
2018-04-14T04:35:45.801Z,9.10
2018-04-14T04:38:12.197Z,9.10
2018-04-14T04:40:44.361Z,9.10
2018-04-14T04:43:10.779Z,9.20
2018-04-14T04:45:37.929Z,9.10
2018-04-14T04:48:05.127Z,9.20
2018-04-14T04:50:32.687Z,9.10
2018-04-14T04:52:59.976Z,9.10
2018-04-14T04:55:27.254Z,9.20
2018-04-14T04:57:53.678Z,9.20
2018-04-14T05:00:21.283Z,9.20
2018-04-14T05:02:48.566Z,9.20
2018-04-14T05:05:15.103Z,9.20
2018-04-14T05:07:42.398Z,9.20
2018-04-14T05:10:09.674Z,9.20
2018-04-14T05:12:36.232Z,9.20
2018-04-14T05:15:03.537Z,9.20
2018-04-14T05:17:30.988Z,9.20
2018-04-14T05:19:58.261Z,9.20
2018-04-14T05:22:24.735Z,9.10
2018-04-14T05:24:53.930Z,9.10
2018-04-14T05:27:21.155Z,9.20
2018-04-14T05:29:47.604Z,9.20
2018-04-14T05:32:14.089Z,9.20
2018-04-14T05:34:40.679Z,9.20
2018-04-14T05:37:07.093Z,9.20
2018-04-14T05:39:33.592Z,9.20
2018-04-14T05:42:00.148Z,9.20
2018-04-14T05:44:28.735Z,9.20
2018-04-14T05:46:56.037Z,9.30
2018-04-14T05:49:22.487Z,9.20
2018-04-14T05:51:49.074Z,9.20
2018-04-14T05:54:15.481Z,9.30
2018-04-14T05:56:41.954Z,9.30
2018-04-14T05:59:09.202Z,9.30
2018-04-14T06:01:35.634Z,9.30
2018-04-14T06:04:02.041Z,9.40
2018-04-14T06:06:30.000Z,9.40
2018-04-14T06:08:56.406Z,9.40
2018-04-14T06:11:22.912Z,9.40
2018-04-14T06:13:50.491Z,9.50
2018-04-14T06:16:17.875Z,9.50
2018-04-14T06:18:44.327Z,9.50
2018-04-14T06:21:12.376Z,9.60
2018-04-14T06:23:38.826Z,9.60
2018-04-14T06:26:05.305Z,9.70
2018-04-14T06:28:31.853Z,9.70
2018-04-14T06:30:58.371Z,9.80
2018-04-14T06:33:25.576Z,10.00
2018-04-14T06:35:52.706Z,10.00
2018-04-14T06:38:20.000Z,10.30
2018-04-14T06:40:46.602Z,10.30
2018-04-14T06:43:13.100Z,10.50
2018-04-14T06:45:40.313Z,11.00
2018-04-14T06:48:07.968Z,10.90
2018-04-14T06:50:34.446Z,11.70
2018-04-14T06:53:00.883Z,12.70
2018-04-14T06:55:28.049Z,14.00
2018-04-14T06:57:55.420Z,14.10
2018-04-14T07:00:22.620Z,14.00
2018-04-14T07:02:49.240Z,13.90
2018-04-14T07:05:15.930Z,13.70
2018-04-14T07:07:42.475Z,13.50
2018-04-14T07:10:09.753Z,12.80
2018-04-14T07:12:37.098Z,12.50
2018-04-14T07:15:03.555Z,12.50
2018-04-14T07:17:31.532Z,12.20
2018-04-14T07:19:57.941Z,12.20
2018-04-14T07:22:24.419Z,12.20
2018-04-14T07:24:50.913Z,12.30
2018-04-14T07:27:17.405Z,12.70
2018-04-14T07:29:43.887Z,13.30
2018-04-14T07:32:10.430Z,14.40
2018-04-14T07:34:37.033Z,15.10
2018-04-14T07:37:03.494Z,15.40
2018-04-14T07:39:31.901Z,16.90
2018-04-14T07:41:58.495Z,17.00
2018-04-14T07:44:24.937Z,18.00
2018-04-14T07:46:52.121Z,21.30
2018-04-14T07:49:19.275Z,20.80
2018-04-14T07:51:46.443Z,20.30
2018-04-14T07:54:12.925Z,20.30
2018-04-14T07:56:39.376Z,19.70
2018-04-14T07:59:05.921Z,19.00
2018-04-14T08:01:33.110Z,20.40
2018-04-14T08:04:00.283Z,20.20
2018-04-14T08:06:27.483Z,19.60
2018-04-14T08:08:54.013Z,19.60
2018-04-14T08:11:21.845Z,20.00
2018-04-14T08:13:48.414Z,20.00
2018-04-14T08:16:14.864Z,22.40
2018-04-14T08:18:41.372Z,24.30
2018-04-14T08:21:08.542Z,26.50
2018-04-14T08:23:35.102Z,26.40
2018-04-14T08:26:02.440Z,27.70
2018-04-14T08:28:28.933Z,27.60
2018-04-14T08:30:56.800Z,28.20
2018-04-14T08:33:23.256Z,28.10
2018-04-14T08:35:50.415Z,27.40
2018-04-14T08:38:17.090Z,27.40
2018-04-14T08:40:43.493Z,26.60
2018-04-14T08:43:10.025Z,26.20
2018-04-14T08:45:36.499Z,25.50
2018-04-14T08:48:03.039Z,24.00
2018-04-14T08:50:30.259Z,21.30
2018-04-14T08:52:56.691Z,21.20
2018-04-14T08:55:23.225Z,20.20
2018-04-14T08:57:50.412Z,19.10
2018-04-14T09:00:17.827Z,19.10
2018-04-14T09:02:44.243Z,18.70
2018-04-14T09:05:10.664Z,18.50
2018-04-14T09:07:37.096Z,18.30
2018-04-14T09:10:03.551Z,18.00
2018-04-14T09:12:34.143Z,17.70
2018-04-14T09:15:00.692Z,17.60
2018-04-14T09:17:27.894Z,17.70
2018-04-14T09:19:54.352Z,17.60
2018-04-14T09:22:20.792Z,17.70
2018-04-14T09:24:47.212Z,17.70
2018-04-14T09:27:14.394Z,17.50
2018-04-14T09:29:40.872Z,17.40
2018-04-14T09:32:08.151Z,16.90
2018-04-14T09:34:34.611Z,16.90
2018-04-14T09:37:01.075Z,16.80
2018-04-14T09:39:27.623Z,16.80
2018-04-14T09:41:54.775Z,17.10
2018-04-14T09:44:21.209Z,17.10
2018-04-14T09:46:49.526Z,17.30
2018-04-14T09:49:16.664Z,17.50
2018-04-14T09:51:43.174Z,17.40
2018-04-14T09:54:10.339Z,17.80
2018-04-14T09:56:37.629Z,17.90
2018-04-14T09:59:04.061Z,17.90
2018-04-14T10:01:31.354Z,17.90
2018-04-14T10:04:01.502Z,17.90
2018-04-14T10:06:27.942Z,18.00
2018-04-14T10:08:55.092Z,18.20
2018-04-14T10:11:21.679Z,18.20
2018-04-14T10:13:48.178Z,18.20
2018-04-14T10:16:14.672Z,18.20
2018-04-14T10:18:41.872Z,18.00
2018-04-14T10:21:12.207Z,18.00
2018-04-14T10:23:38.678Z,17.90
2018-04-14T10:26:05.155Z,17.90
2018-04-14T10:28:31.627Z,17.90
2018-04-14T10:30:58.306Z,18.00
2018-04-14T10:33:24.992Z,18.10
2018-04-14T10:35:52.271Z,18.10
2018-04-14T10:38:18.720Z,18.00
2018-04-14T10:40:45.370Z,18.00
2018-04-14T10:43:12.668Z,18.00
2018-04-14T10:45:39.126Z,18.00
2018-04-14T10:48:05.986Z,18.00
2018-04-14T10:50:33.563Z,17.90
2018-04-14T10:53:00.816Z,18.00
2018-04-14T10:55:27.220Z,18.00
2018-04-14T10:57:54.471Z,18.00
2018-04-14T11:00:21.015Z,17.90
2018-04-14T11:02:48.400Z,17.80
2018-04-14T11:05:16.381Z,17.80
2018-04-14T11:07:43.669Z,17.80
2018-04-14T11:10:10.977Z,17.90
2018-04-14T11:12:37.607Z,17.80
2018-04-14T11:15:04.576Z,18.10
2018-04-14T11:17:31.079Z,18.30
2018-04-14T11:19:57.572Z,18.50
2018-04-14T11:22:24.780Z,19.00
2018-04-14T11:24:51.240Z,19.00
2018-04-14T11:27:17.696Z,19.10
2018-04-14T11:29:45.262Z,19.30
2018-04-14T11:32:11.750Z,19.40
2018-04-14T11:34:38.184Z,19.50
2018-04-14T11:37:04.725Z,19.60
2018-04-14T11:39:34.040Z,19.70
2018-04-14T11:42:02.341Z,19.70
2018-04-14T11:44:29.513Z,19.60
2018-04-14T11:46:56.667Z,19.60
2018-04-14T11:49:23.125Z,19.60
2018-04-14T11:51:50.328Z,19.70
2018-04-14T11:54:16.763Z,19.70
2018-04-14T11:56:44.046Z,19.30
2018-04-14T11:59:11.854Z,19.10
2018-04-14T12:01:42.177Z,19.00
2018-04-14T12:04:08.739Z,18.80
2018-04-14T12:06:35.192Z,18.70
2018-04-14T12:09:02.572Z,18.90
2018-04-14T12:11:29.130Z,18.90
2018-04-14T12:13:55.602Z,19.00
2018-04-14T12:16:22.530Z,19.10
2018-04-14T12:18:50.232Z,19.10
2018-04-14T12:21:16.753Z,19.10
2018-04-14T12:23:43.347Z,19.10
2018-04-14T12:26:10.599Z,19.20
2018-04-14T12:28:37.179Z,19.10
2018-04-14T12:31:04.469Z,19.20
2018-04-14T12:33:31.015Z,19.20
2018-04-14T12:35:58.598Z,19.10
2018-04-14T12:38:25.121Z,19.10
2018-04-14T12:40:53.088Z,19.10
2018-04-14T12:43:19.651Z,19.10
2018-04-14T12:45:46.122Z,19.00
2018-04-14T12:48:12.620Z,18.90
2018-04-14T12:50:39.202Z,19.10
2018-04-14T12:53:05.699Z,19.30
2018-04-14T12:55:32.172Z,19.40
2018-04-14T12:57:59.600Z,19.40
2018-04-14T13:00:26.128Z,19.40
2018-04-14T13:02:52.742Z,19.40
2018-04-14T13:05:19.217Z,19.40
2018-04-14T13:07:46.513Z,19.30
2018-04-14T13:10:13.789Z,19.40
2018-04-14T13:12:41.047Z,19.60
2018-04-14T13:15:08.241Z,19.60
2018-04-14T13:17:35.683Z,19.60
2018-04-14T13:20:02.174Z,19.70
2018-04-14T13:22:28.715Z,19.70
2018-04-14T13:24:56.059Z,19.70
2018-04-14T13:27:22.452Z,19.70
2018-04-14T13:29:49.738Z,19.60
2018-04-14T13:32:17.397Z,19.60
2018-04-14T13:34:43.879Z,19.50
2018-04-14T13:37:10.324Z,19.40
2018-04-14T13:39:37.536Z,19.30
2018-04-14T13:42:04.062Z,19.30
2018-04-14T13:44:30.554Z,19.30
2018-04-14T13:46:57.027Z,19.30
2018-04-14T13:49:23.458Z,19.40
2018-04-14T13:51:49.965Z,19.40
2018-04-14T13:54:16.411Z,19.50
2018-04-14T13:56:42.839Z,19.50
2018-04-14T13:59:09.361Z,19.50
2018-04-14T14:01:35.773Z,19.30
2018-04-14T14:04:02.276Z,19.10
2018-04-14T14:06:28.696Z,18.90
2018-04-14T14:08:55.168Z,18.80
2018-04-14T14:11:22.323Z,18.60
2018-04-14T14:13:49.563Z,18.70
2018-04-14T14:16:16.023Z,18.70
2018-04-14T14:18:42.553Z,18.80
2018-04-14T14:21:09.130Z,18.90
2018-04-14T14:23:35.553Z,19.00
2018-04-14T14:26:02.831Z,18.80
2018-04-14T14:28:29.989Z,18.70
2018-04-14T14:30:57.337Z,18.50
2018-04-14T14:33:23.836Z,18.50
2018-04-14T14:35:51.040Z,18.50
2018-04-14T14:38:17.488Z,18.50
2018-04-14T14:40:44.966Z,18.50
2018-04-14T14:43:11.412Z,18.40
2018-04-14T14:45:37.860Z,18.40
2018-04-14T14:48:04.469Z,18.30
2018-04-14T14:50:30.891Z,18.20
2018-04-14T14:52:57.335Z,18.20
2018-04-14T14:55:23.965Z,18.40
2018-04-14T14:57:50.446Z,18.50
2018-04-14T15:00:16.939Z,18.70
2018-04-14T15:02:43.424Z,18.90
2018-04-14T15:05:10.041Z,18.80
2018-04-14T15:07:36.451Z,18.80
2018-04-14T15:10:03.031Z,18.70
2018-04-14T15:12:29.478Z,18.60
2018-04-14T15:15:02.321Z,18.30
2018-04-14T15:17:28.864Z,18.30
2018-04-14T15:19:55.401Z,18.20
2018-04-14T15:22:21.828Z,18.20
2018-04-14T15:24:48.295Z,18.10
2018-04-14T15:27:14.756Z,18.10
2018-04-14T15:29:42.057Z,18.00
2018-04-14T15:32:08.600Z,17.90
2018-04-14T15:34:35.904Z,17.90
2018-04-14T15:37:03.150Z,17.80
2018-04-14T15:39:30.262Z,17.80
2018-04-14T15:41:58.891Z,17.80
2018-04-14T15:44:25.383Z,17.80
2018-04-14T15:46:52.551Z,17.80
2018-04-14T15:49:19.019Z,17.70
2018-04-14T15:51:45.568Z,17.80
2018-04-14T15:54:12.126Z,17.80
2018-04-14T15:56:39.294Z,17.80
2018-04-14T15:59:06.476Z,17.70
2018-04-14T16:01:34.771Z,17.70
2018-04-14T16:04:09.655Z,17.70
2018-04-14T16:06:27.986Z,17.70
2018-04-14T16:08:54.545Z,17.70
2018-04-14T16:11:21.822Z,17.70
2018-04-14T16:13:48.273Z,17.60
2018-04-14T16:16:15.450Z,17.80
2018-04-14T16:18:42.725Z,17.80
2018-04-14T16:21:09.997Z,17.80
2018-04-14T16:23:37.214Z,17.90
2018-04-14T16:26:04.167Z,17.80
2018-04-14T16:28:30.699Z,17.90
2018-04-14T16:30:58.022Z,18.10
2018-04-14T16:33:24.489Z,18.10
2018-04-14T16:35:50.921Z,18.10
2018-04-14T16:38:17.343Z,18.10
2018-04-14T16:40:44.002Z,18.10
2018-04-14T16:43:11.156Z,17.90
2018-04-14T16:45:37.632Z,17.90
2018-04-14T16:48:04.114Z,17.80
2018-04-14T16:50:30.646Z,17.70
2018-04-14T16:52:57.858Z,17.60
2018-04-14T16:55:24.451Z,17.50
2018-04-14T16:57:51.750Z,17.50
2018-04-14T17:00:18.970Z,17.50
2018-04-14T17:02:46.084Z,17.40
2018-04-14T17:05:13.263Z,17.40
2018-04-14T17:07:40.496Z,17.30
2018-04-14T17:10:08.158Z,17.30
2018-04-14T17:12:34.681Z,17.30
2018-04-14T17:15:01.877Z,17.20
2018-04-14T17:17:28.336Z,17.20
2018-04-14T17:19:54.756Z,17.10
2018-04-14T17:22:21.908Z,16.90
2018-04-14T17:24:48.498Z,16.80
2018-04-14T17:27:15.651Z,16.60
2018-04-14T17:29:42.846Z,16.50
2018-04-14T17:32:11.077Z,16.40
2018-04-14T17:34:37.457Z,16.40
2018-04-14T17:37:04.770Z,16.10
2018-04-14T17:39:32.046Z,16.00
2018-04-14T17:41:59.232Z,15.90
2018-04-14T17:44:25.701Z,15.90
2018-04-14T17:46:52.135Z,15.70
2018-04-14T17:49:18.646Z,15.60
2018-04-14T17:51:45.843Z,15.20
2018-04-14T17:54:13.025Z,15.10
2018-04-14T17:56:39.494Z,15.00
2018-04-14T17:59:08.584Z,14.90
2018-04-14T18:01:38.058Z,14.70
2018-04-14T18:04:06.648Z,14.50
2018-04-14T18:06:33.246Z,14.30
2018-04-14T18:09:01.284Z,14.20
2018-04-14T18:11:28.509Z,13.80
2018-04-14T18:13:54.945Z,13.80
2018-04-14T18:16:21.396Z,13.70
2018-04-14T18:18:48.862Z,13.50
2018-04-14T18:21:15.805Z,13.40
2018-04-14T18:23:43.036Z,13.20
2018-04-14T18:26:10.416Z,13.00
2018-04-14T18:28:36.906Z,13.00
2018-04-14T18:31:04.128Z,12.80
2018-04-14T18:33:30.652Z,12.80
2018-04-14T18:35:58.242Z,12.70
2018-04-14T18:38:24.795Z,12.70
2018-04-14T18:40:51.396Z,12.60
2018-04-14T18:43:17.798Z,12.50
2018-04-14T18:45:48.111Z,12.30
2018-04-14T18:48:15.790Z,12.30
2018-04-14T18:50:42.776Z,12.20
2018-04-14T18:53:09.568Z,12.10
2018-04-14T18:55:36.048Z,12.00
2018-04-14T18:58:03.070Z,12.00
2018-04-14T19:00:29.509Z,11.90
2018-04-14T19:02:57.534Z,11.80
2018-04-14T19:05:24.810Z,11.70
2018-04-14T19:07:53.112Z,11.70
2018-04-14T19:10:19.556Z,11.60
2018-04-14T19:12:46.780Z,11.60
2018-04-14T19:15:13.295Z,11.60
2018-04-14T19:17:40.672Z,11.50
2018-04-14T19:20:07.832Z,11.40
2018-04-14T19:22:35.027Z,11.40
2018-04-14T19:25:01.617Z,11.40
2018-04-14T19:27:28.080Z,11.40
2018-04-14T19:29:54.593Z,11.30
2018-04-14T19:32:21.111Z,11.30
2018-04-14T19:34:48.526Z,11.20
2018-04-14T19:37:14.967Z,11.20
2018-04-14T19:39:42.115Z,11.10
2018-04-14T19:42:08.572Z,11.10
2018-04-14T19:44:36.038Z,11.10
2018-04-14T19:47:02.648Z,11.00
2018-04-14T19:49:30.801Z,10.90
2018-04-14T19:51:57.402Z,10.90
2018-04-14T19:54:23.836Z,10.80
2018-04-14T19:56:50.420Z,10.80
2018-04-14T19:59:17.488Z,10.70
2018-04-14T20:01:44.968Z,10.60
2018-04-14T20:04:11.628Z,10.60
2018-04-14T20:06:38.271Z,10.60
2018-04-14T20:09:05.765Z,10.50
2018-04-14T20:11:32.969Z,10.40
2018-04-14T20:13:59.437Z,10.40
2018-04-14T20:16:25.956Z,10.40
2018-04-14T20:18:52.367Z,10.40
2018-04-14T20:21:26.663Z,10.40
2018-04-14T20:23:53.126Z,10.40
2018-04-14T20:26:19.658Z,10.40
2018-04-14T20:28:46.177Z,10.40
2018-04-14T20:31:12.789Z,10.40
2018-04-14T20:33:39.928Z,10.40
2018-04-14T20:36:07.108Z,10.40
2018-04-14T20:38:34.362Z,10.40
2018-04-14T20:41:00.851Z,10.40
2018-04-14T20:43:27.308Z,10.40
2018-04-14T20:45:53.736Z,10.30
2018-04-14T20:48:20.207Z,10.30
2018-04-14T20:50:47.391Z,10.40
2018-04-14T20:53:13.867Z,10.30
2018-04-14T20:55:40.399Z,10.40
2018-04-14T20:58:07.553Z,10.30
2018-04-14T21:00:34.767Z,10.40
2018-04-14T21:03:01.303Z,10.30
2018-04-14T21:05:28.504Z,10.30
2018-04-14T21:07:55.034Z,10.30
2018-04-14T21:10:21.592Z,10.30
2018-04-14T21:12:48.817Z,10.30
2018-04-14T21:15:15.432Z,10.30
2018-04-14T21:17:41.984Z,10.30
2018-04-14T21:20:10.076Z,10.30
2018-04-14T21:22:37.555Z,10.20
2018-04-14T21:25:05.545Z,10.20
2018-04-14T21:27:32.418Z,10.20
2018-04-14T21:29:58.976Z,10.20
2018-04-14T21:32:25.733Z,10.10
2018-04-14T21:34:53.122Z,10.10
2018-04-14T21:37:19.669Z,10.00
2018-04-14T21:39:46.536Z,9.90
2018-04-14T21:42:14.523Z,9.90
2018-04-14T21:44:41.589Z,9.80
2018-04-14T21:47:09.581Z,9.70
2018-04-14T21:49:37.063Z,9.70
2018-04-14T21:52:04.360Z,9.60
2018-04-14T21:54:30.953Z,9.60
2018-04-14T21:56:57.471Z,9.50
2018-04-14T21:59:24.114Z,9.50
2018-04-14T22:01:50.676Z,9.40
2018-04-14T22:04:17.434Z,9.30
2018-04-14T22:06:43.994Z,9.30
2018-04-14T22:09:11.169Z,9.20
2018-04-14T22:11:38.390Z,9.20
2018-04-14T22:14:05.411Z,9.20
2018-04-14T22:16:31.964Z,9.20
2018-04-14T22:18:58.499Z,9.10
2018-04-14T22:21:24.968Z,9.00
2018-04-14T22:23:52.255Z,8.90
2018-04-14T22:26:19.644Z,8.90
2018-04-14T22:28:47.214Z,8.90
2018-04-14T22:31:14.425Z,8.90
2018-04-14T22:33:41.055Z,8.90
2018-04-14T22:36:07.565Z,8.90
2018-04-14T22:38:34.002Z,8.80
2018-04-14T22:41:00.451Z,8.80
2018-04-14T22:43:26.917Z,8.80
2018-04-14T22:45:53.431Z,8.80
2018-04-14T22:48:20.579Z,8.80
2018-04-14T22:50:47.034Z,8.70
2018-04-14T22:53:13.449Z,8.70
2018-04-14T22:55:40.623Z,8.70
2018-04-14T22:58:07.146Z,8.70
2018-04-14T23:00:34.100Z,8.70
2018-04-14T23:03:01.391Z,8.60
2018-04-14T23:05:27.942Z,8.60
2018-04-14T23:07:55.116Z,8.50
2018-04-14T23:10:22.395Z,8.40
2018-04-14T23:12:48.833Z,8.40
2018-04-14T23:15:15.273Z,8.40
2018-04-14T23:17:41.713Z,8.40
2018-04-14T23:20:08.213Z,8.30
2018-04-14T23:22:35.380Z,8.30
2018-04-14T23:25:03.236Z,8.30
2018-04-14T23:27:30.548Z,8.30
2018-04-14T23:29:57.781Z,8.20
2018-04-14T23:32:24.199Z,8.20
2018-04-14T23:34:50.632Z,8.20
2018-04-14T23:37:17.192Z,8.20
2018-04-14T23:39:44.367Z,8.10
2018-04-14T23:42:11.561Z,8.10
2018-04-14T23:44:38.540Z,8.10
2018-04-14T23:47:04.967Z,8.20
2018-04-14T23:49:31.415Z,8.10
2018-04-14T23:51:58.603Z,8.10
2018-04-14T23:54:27.149Z,8.10
2018-04-14T23:56:53.559Z,8.10
2018-04-14T23:59:19.985Z,8.10
